createdAt,value
2022-10-24T00:01:20.842Z,6.03
2022-10-24T00:03:48.059Z,7.43
2022-10-24T00:06:14.815Z,6.63
2022-10-24T00:08:44.527Z,6.45
2022-10-24T00:11:13.269Z,6.78
2022-10-24T00:13:39.741Z,6.40
2022-10-24T00:16:06.362Z,7.10
2022-10-24T00:18:32.826Z,7.15
2022-10-24T00:20:59.258Z,6.32
2022-10-24T00:23:25.650Z,5.90
2022-10-24T00:25:52.102Z,6.50
2022-10-24T00:28:18.857Z,5.25
2022-10-24T00:30:45.417Z,4.47
2022-10-24T00:33:11.887Z,5.47
2022-10-24T00:35:38.362Z,5.38
2022-10-24T00:38:04.794Z,5.15
2022-10-24T00:40:31.345Z,6.40
2022-10-24T00:42:57.886Z,4.55
2022-10-24T00:45:47.699Z,5.32
2022-10-24T00:48:16.273Z,5.75
2022-10-24T00:50:43.002Z,4.82
2022-10-24T00:53:09.722Z,4.72
2022-10-24T00:55:36.252Z,4.78
2022-10-24T00:58:02.847Z,4.75
2022-10-24T01:00:30.901Z,6.57
2022-10-24T01:02:58.080Z,4.88
2022-10-24T01:05:26.446Z,5.18
2022-10-24T01:08:02.920Z,4.72
2022-10-24T01:10:32.351Z,4.38
2022-10-24T01:12:58.831Z,5.15
2022-10-24T01:15:25.281Z,5.22
2022-10-24T01:17:56.540Z,4.65
2022-10-24T01:20:29.982Z,4.80
2022-10-24T01:23:08.294Z,5.65
2022-10-24T01:25:42.156Z,5.03
2022-10-24T01:28:14.538Z,5.95
2022-10-24T01:30:46.062Z,6.22
2022-10-24T01:33:18.708Z,5.22
2022-10-24T01:36:23.767Z,5.53
2022-10-24T01:38:59.736Z,5.25
2022-10-24T01:41:29.169Z,5.10
2022-10-24T01:43:55.570Z,6.22
2022-10-24T01:46:28.037Z,5.95
2022-10-24T01:49:00.335Z,4.97
2022-10-24T01:51:27.442Z,6.15
2022-10-24T01:53:54.538Z,5.60
2022-10-24T01:56:21.074Z,5.80
2022-10-24T01:58:47.534Z,4.85
2022-10-24T02:01:16.111Z,5.00
2022-10-24T02:03:45.309Z,4.88
2022-10-24T02:06:18.332Z,6.20
2022-10-24T02:08:47.560Z,4.90
2022-10-24T02:11:14.230Z,5.20
2022-10-24T02:13:53.409Z,5.57
2022-10-24T02:16:20.372Z,4.88
2022-10-24T02:18:47.626Z,4.35
2022-10-24T02:21:20.302Z,5.00
2022-10-24T02:23:46.695Z,4.50
2022-10-24T02:26:20.226Z,4.95
2022-10-24T02:28:49.296Z,4.93
2022-10-24T02:31:18.116Z,5.47
2022-10-24T02:33:45.830Z,5.30
2022-10-24T02:36:14.282Z,5.15
2022-10-24T02:38:42.817Z,4.68
2022-10-24T02:41:11.365Z,4.18
2022-10-24T02:43:38.695Z,4.85
2022-10-24T02:46:06.084Z,4.30
2022-10-24T02:48:34.468Z,4.63
2022-10-24T02:51:01.576Z,4.75
2022-10-24T02:53:28.304Z,5.05
2022-10-24T02:55:54.802Z,4.28
2022-10-24T02:58:21.578Z,4.65
2022-10-24T03:00:48.164Z,4.10
2022-10-24T03:03:14.655Z,3.78
2022-10-24T03:05:41.055Z,4.97
2022-10-24T03:08:07.571Z,4.35
2022-10-24T03:10:34.017Z,3.72
2022-10-24T03:13:00.926Z,4.03
2022-10-24T03:15:27.333Z,3.95
2022-10-24T03:17:53.735Z,3.63
2022-10-24T03:20:20.144Z,3.60
2022-10-24T03:22:46.544Z,3.63
2022-10-24T03:25:12.998Z,4.80
2022-10-24T03:27:39.590Z,3.95
2022-10-24T03:30:06.403Z,3.78
2022-10-24T03:32:34.343Z,3.90
2022-10-24T03:35:01.359Z,4.47
2022-10-24T03:37:28.295Z,3.80
2022-10-24T03:39:54.738Z,3.92
2022-10-24T03:42:21.304Z,3.60
2022-10-24T03:44:47.891Z,3.50
2022-10-24T03:47:14.336Z,3.85
2022-10-24T03:49:40.809Z,3.35
2022-10-24T03:52:07.239Z,3.30
2022-10-24T03:54:34.594Z,3.33
2022-10-24T03:57:01.071Z,5.15
2022-10-24T03:59:27.555Z,3.70
2022-10-24T04:01:54.057Z,3.97
2022-10-24T04:04:20.512Z,4.10
2022-10-24T04:06:46.971Z,4.28
2022-10-24T04:09:13.751Z,3.47
2022-10-24T04:11:40.149Z,3.83
2022-10-24T04:14:06.607Z,3.47
2022-10-24T04:16:34.722Z,3.47
2022-10-24T04:19:01.264Z,3.50
2022-10-24T04:21:27.844Z,3.30
2022-10-24T04:23:54.486Z,3.03
2022-10-24T04:26:21.195Z,3.03
2022-10-24T04:28:48.184Z,4.00
2022-10-24T04:31:17.054Z,3.20
2022-10-24T04:33:46.443Z,3.35
2022-10-24T04:36:12.873Z,3.05
2022-10-24T04:38:39.281Z,2.90
2022-10-24T04:41:07.385Z,4.07
2022-10-24T04:43:36.357Z,3.47
2022-10-24T04:46:02.797Z,3.10
2022-10-24T04:48:29.587Z,3.13
2022-10-24T04:50:56.012Z,2.80
2022-10-24T04:53:22.710Z,2.85
2022-10-24T04:55:49.117Z,3.35
2022-10-24T04:58:15.625Z,3.40
2022-10-24T05:00:46.469Z,3.00
2022-10-24T05:03:13.283Z,2.65
2022-10-24T05:05:39.770Z,3.28
2022-10-24T05:08:06.429Z,3.50
2022-10-24T05:10:34.117Z,2.78
2022-10-24T05:13:00.549Z,3.08
2022-10-24T05:15:29.932Z,2.80
2022-10-24T05:17:57.368Z,2.50
2022-10-24T05:20:24.143Z,3.22
2022-10-24T05:22:50.693Z,3.13
2022-10-24T05:25:17.393Z,2.85
2022-10-24T05:27:43.827Z,3.05
2022-10-24T05:30:10.635Z,2.28
2022-10-24T05:32:39.556Z,2.83
2022-10-24T05:35:54.950Z,2.30
2022-10-24T05:38:36.182Z,2.30
2022-10-24T05:41:02.987Z,2.60
2022-10-24T05:43:29.396Z,2.72
2022-10-24T05:45:55.803Z,2.45
2022-10-24T05:48:22.303Z,2.17
2022-10-24T05:50:48.731Z,2.92
2022-10-24T05:53:15.431Z,2.35
2022-10-24T05:55:41.981Z,2.92
2022-10-24T05:58:08.397Z,2.30
2022-10-24T06:00:35.051Z,2.30
2022-10-24T06:03:01.772Z,2.90
2022-10-24T06:05:28.249Z,3.05
2022-10-24T06:07:54.754Z,2.88
2022-10-24T06:10:21.401Z,3.13
2022-10-24T06:12:48.075Z,3.00
2022-10-24T06:15:14.757Z,4.35
2022-10-24T06:17:41.243Z,3.28
2022-10-24T06:20:08.052Z,2.78
2022-10-24T06:22:34.590Z,1.98
2022-10-24T06:25:01.589Z,2.08
2022-10-24T06:27:28.144Z,2.55
2022-10-24T06:29:54.607Z,2.13
2022-10-24T06:32:21.106Z,2.58
2022-10-24T06:34:47.497Z,2.20
2022-10-24T06:37:18.520Z,2.13
2022-10-24T06:39:47.346Z,1.85
2022-10-24T06:42:16.197Z,1.77
2022-10-24T06:44:42.786Z,2.03
2022-10-24T06:47:09.284Z,2.30
2022-10-24T06:49:35.838Z,2.40
2022-10-24T06:52:02.477Z,1.80
2022-10-24T06:54:30.505Z,2.00
2022-10-24T06:56:57.077Z,2.10
2022-10-24T06:59:23.502Z,1.92
2022-10-24T07:01:50.017Z,1.98
2022-10-24T07:04:16.566Z,2.65
2022-10-24T07:06:43.019Z,2.05
2022-10-24T07:09:14.337Z,2.63
2022-10-24T07:11:42.613Z,2.53
2022-10-24T07:14:09.827Z,2.25
2022-10-24T07:16:36.901Z,2.10
2022-10-24T07:19:04.081Z,2.22
2022-10-24T07:21:31.678Z,2.00
2022-10-24T07:23:58.164Z,2.35
2022-10-24T07:26:25.567Z,1.90
2022-10-24T07:28:58.422Z,1.98
2022-10-24T07:31:26.152Z,1.63
2022-10-24T07:33:52.967Z,1.70
2022-10-24T07:36:20.559Z,2.00
2022-10-24T07:38:47.588Z,1.98
2022-10-24T07:41:14.118Z,2.10
2022-10-24T07:43:41.232Z,1.70
2022-10-24T07:46:08.557Z,2.00
2022-10-24T07:48:35.637Z,1.58
2022-10-24T07:51:05.430Z,1.90
2022-10-24T07:53:31.884Z,2.33
2022-10-24T07:55:59.896Z,1.60
2022-10-24T07:58:26.777Z,1.77
2022-10-24T08:00:53.379Z,1.63
2022-10-24T08:03:19.963Z,1.70
2022-10-24T08:05:47.163Z,1.95
2022-10-24T08:08:34.857Z,1.45
2022-10-24T08:13:27.574Z,1.73
2022-10-24T08:15:54.243Z,1.70
2022-10-24T08:18:20.678Z,1.65
2022-10-24T08:21:00.716Z,1.88
2022-10-24T08:23:27.579Z,1.58
2022-10-24T08:25:54.139Z,1.80
2022-10-24T08:28:21.032Z,1.40
2022-10-24T08:30:57.717Z,1.38
2022-10-24T08:33:24.351Z,2.03
2022-10-24T08:35:50.981Z,3.20
2022-10-24T08:38:17.409Z,1.70
2022-10-24T08:40:44.785Z,1.83
2022-10-24T08:43:11.768Z,1.85
2022-10-24T08:46:01.433Z,1.80
2022-10-24T08:48:57.193Z,1.70
2022-10-24T08:51:38.738Z,1.83
2022-10-24T08:54:06.420Z,1.83
2022-10-24T08:56:33.587Z,1.50
2022-10-24T08:59:01.057Z,1.58
2022-10-24T09:01:38.928Z,1.70
2022-10-24T09:04:07.740Z,1.40
2022-10-24T09:06:34.213Z,1.80
2022-10-24T09:09:00.828Z,1.90
2022-10-24T09:11:45.543Z,1.70
2022-10-24T09:14:13.377Z,2.15
2022-10-24T09:16:41.798Z,1.95
2022-10-24T09:19:10.707Z,2.10
2022-10-24T09:21:40.249Z,2.25
2022-10-24T09:24:07.463Z,2.05
2022-10-24T09:26:37.494Z,1.88
2022-10-24T09:29:04.022Z,1.75
2022-10-24T09:31:31.976Z,1.95
2022-10-24T09:34:00.411Z,2.05
2022-10-24T09:36:40.495Z,1.83
2022-10-24T09:39:31.863Z,1.80
2022-10-24T09:41:59.492Z,2.17
2022-10-24T09:44:41.518Z,2.00
2022-10-24T09:47:22.472Z,2.13
2022-10-24T09:49:49.261Z,2.35
2022-10-24T09:52:16.477Z,2.17
2022-10-24T09:54:43.895Z,1.92
2022-10-24T09:57:10.326Z,2.08
2022-10-24T09:59:36.900Z,2.03
2022-10-24T10:02:20.811Z,2.15
2022-10-24T10:04:48.070Z,2.00
2022-10-24T10:07:16.561Z,2.30
2022-10-24T10:09:50.572Z,2.15
2022-10-24T10:12:39.625Z,2.42
2022-10-24T10:15:23.636Z,1.80
2022-10-24T10:17:54.861Z,2.35
2022-10-24T10:20:35.402Z,2.00
2022-10-24T10:23:17.278Z,2.42
2022-10-24T10:25:43.890Z,2.17
2022-10-24T10:28:23.300Z,2.13
2022-10-24T10:30:53.302Z,2.03
2022-10-24T10:33:23.993Z,2.03
2022-10-24T10:35:53.585Z,2.33
2022-10-24T10:38:40.554Z,2.92
2022-10-24T10:41:16.404Z,1.83
2022-10-24T10:44:06.048Z,2.10
2022-10-24T10:46:39.463Z,1.90
2022-10-24T10:49:06.081Z,2.33
2022-10-24T10:51:37.360Z,2.40
2022-10-24T10:54:24.057Z,2.45
2022-10-24T10:56:54.888Z,2.40
2022-10-24T10:59:39.012Z,2.25
2022-10-24T11:02:27.423Z,2.00
2022-10-24T11:05:11.023Z,2.42
2022-10-24T11:07:44.886Z,2.10
2022-10-24T11:10:20.737Z,2.33
2022-10-24T11:12:47.133Z,2.28
2022-10-24T11:15:25.738Z,2.10
2022-10-24T11:17:54.911Z,2.10
2022-10-24T11:20:21.420Z,2.40
2022-10-24T11:22:53.765Z,2.45
2022-10-24T11:25:23.258Z,2.10
2022-10-24T11:28:01.975Z,1.70
2022-10-24T11:30:43.556Z,1.90
2022-10-24T11:33:31.210Z,2.25
2022-10-24T11:36:01.763Z,2.10
2022-10-24T11:38:30.382Z,2.70
2022-10-24T11:40:59.615Z,2.28
2022-10-24T11:43:30.147Z,2.35
2022-10-24T11:46:00.055Z,2.40
2022-10-24T11:48:37.585Z,1.85
2022-10-24T11:51:17.760Z,2.25
2022-10-24T11:53:55.264Z,1.95
2022-10-24T11:56:31.391Z,2.05
2022-10-24T11:59:00.205Z,2.10
2022-10-24T12:01:29.646Z,2.03
2022-10-24T12:04:17.358Z,2.60
2022-10-24T12:06:50.803Z,2.60
2022-10-24T12:09:17.172Z,2.30
2022-10-24T12:11:58.667Z,2.05
2022-10-24T12:14:34.166Z,2.65
2022-10-24T12:17:09.562Z,1.83
2022-10-24T12:19:39.253Z,2.95
2022-10-24T12:22:06.165Z,2.50
2022-10-24T12:24:34.564Z,2.10
2022-10-24T12:27:02.899Z,2.67
2022-10-24T12:29:33.475Z,2.08
2022-10-24T12:32:20.034Z,2.20
2022-10-24T12:35:12.285Z,2.47
2022-10-24T12:37:46.679Z,2.03
2022-10-24T12:40:32.294Z,2.17
2022-10-24T12:42:58.832Z,2.38
2022-10-24T12:45:28.735Z,2.22
2022-10-24T12:50:22.702Z,1.85
2022-10-24T12:52:51.261Z,2.05
2022-10-24T12:55:39.441Z,2.63
2022-10-24T12:58:25.366Z,2.50
2022-10-24T13:00:55.086Z,2.00
2022-10-24T13:03:35.891Z,2.22
2022-10-24T13:06:08.457Z,2.67
2022-10-24T13:08:35.627Z,2.25
2022-10-24T13:11:20.425Z,1.67
2022-10-24T13:14:09.485Z,2.20
2022-10-24T13:16:40.448Z,2.20
2022-10-24T13:19:06.804Z,1.98
2022-10-24T13:24:10.474Z,2.10
2022-10-24T13:26:42.345Z,1.70
2022-10-24T13:29:15.127Z,1.77
2022-10-24T13:31:43.568Z,1.90
2022-10-24T13:34:20.967Z,1.67
2022-10-24T13:36:49.530Z,2.53
2022-10-24T13:39:17.991Z,1.80
2022-10-24T13:41:46.688Z,1.77
2022-10-24T13:44:22.859Z,2.35
2022-10-24T13:46:54.440Z,2.17
2022-10-24T13:49:32.278Z,1.80
2022-10-24T13:52:01.780Z,2.15
2022-10-24T13:54:30.111Z,2.05
2022-10-24T13:56:59.730Z,2.10
2022-10-24T13:59:38.106Z,1.73
2022-10-24T14:02:12.920Z,2.22
2022-10-24T14:07:49.412Z,2.17
2022-10-24T14:10:22.413Z,1.90
2022-10-24T14:12:57.289Z,2.00
2022-10-24T14:15:33.289Z,1.95
2022-10-24T14:18:26.046Z,1.98
2022-10-24T14:20:57.496Z,2.05
2022-10-24T14:23:28.371Z,1.42
2022-10-24T14:26:17.982Z,2.08
2022-10-24T14:28:59.836Z,1.55
2022-10-24T14:31:32.630Z,1.70
2022-10-24T14:33:59.023Z,2.35
2022-10-24T14:36:28.218Z,1.98
2022-10-24T14:38:57.478Z,2.20
2022-10-24T14:41:29.902Z,1.98
2022-10-24T14:43:58.730Z,2.00
2022-10-24T14:46:29.449Z,2.15
2022-10-24T14:48:56.107Z,1.70
2022-10-24T14:51:25.645Z,2.38
2022-10-24T14:53:52.072Z,2.40
2022-10-24T14:56:27.687Z,2.70
2022-10-24T14:58:55.771Z,2.30
2022-10-24T15:01:26.324Z,2.03
2022-10-24T15:04:01.489Z,2.28
2022-10-24T15:06:30.424Z,2.22
2022-10-24T15:09:10.117Z,2.47
2022-10-24T15:11:41.187Z,2.22
2022-10-24T15:14:26.395Z,1.95
2022-10-24T15:16:52.940Z,2.17
2022-10-24T15:19:19.554Z,2.22
2022-10-24T15:21:46.316Z,1.92
2022-10-24T15:24:26.544Z,2.08
2022-10-24T15:26:53.343Z,1.98
2022-10-24T15:29:21.357Z,2.15
2022-10-24T15:31:48.437Z,1.85
2022-10-24T15:34:16.099Z,2.25
2022-10-24T15:36:43.468Z,1.70
2022-10-24T15:39:09.914Z,2.55
2022-10-24T15:41:36.656Z,2.15
2022-10-24T15:44:05.807Z,2.05
2022-10-24T15:46:32.280Z,2.38
2022-10-24T15:48:58.714Z,2.45
2022-10-24T15:51:25.500Z,2.15
2022-10-24T15:53:53.893Z,2.60
2022-10-24T15:56:20.398Z,2.55
2022-10-24T16:01:29.640Z,2.38
2022-10-24T16:03:56.978Z,2.30
2022-10-24T16:06:23.812Z,2.15
2022-10-24T16:08:50.517Z,2.00
2022-10-24T16:11:16.987Z,1.90
2022-10-24T16:13:43.677Z,2.30
2022-10-24T16:16:10.192Z,2.33
2022-10-24T16:18:36.622Z,2.58
2022-10-24T16:21:04.958Z,2.55
2022-10-24T16:23:31.931Z,2.25
2022-10-24T16:25:58.362Z,2.90
2022-10-24T16:28:26.007Z,2.20
2022-10-24T16:30:53.058Z,1.98
2022-10-24T16:33:22.236Z,2.00
2022-10-24T16:35:48.876Z,1.95
2022-10-24T16:38:15.287Z,2.17
2022-10-24T16:40:43.064Z,2.00
2022-10-24T16:43:10.484Z,1.88
2022-10-24T16:45:37.038Z,2.00
2022-10-24T16:48:03.582Z,2.35
2022-10-24T16:50:30.604Z,2.03
2022-10-24T16:53:02.239Z,2.25
2022-10-24T16:55:30.911Z,2.55
2022-10-24T16:57:57.884Z,2.60
2022-10-24T17:00:30.657Z,2.17
2022-10-24T17:02:58.487Z,3.05
2022-10-24T17:05:26.642Z,2.20
2022-10-24T17:07:53.526Z,2.47
2022-10-24T17:10:22.304Z,3.05
2022-10-24T17:12:51.286Z,2.67
2022-10-24T17:15:21.923Z,2.47
2022-10-24T17:17:49.489Z,2.72
2022-10-24T17:20:17.199Z,2.38
2022-10-24T17:22:44.372Z,3.53
2022-10-24T17:25:18.814Z,2.92
2022-10-24T17:27:45.568Z,2.65
2022-10-24T17:30:14.807Z,3.25
2022-10-24T17:32:41.295Z,3.05
2022-10-24T17:35:08.042Z,2.45
2022-10-24T17:37:40.545Z,2.03
2022-10-24T17:40:18.461Z,2.58
2022-10-24T17:42:48.431Z,2.58
2022-10-24T17:45:16.684Z,2.90
2022-10-24T17:50:17.157Z,3.72
2022-10-24T17:52:44.200Z,3.40
2022-10-24T17:55:27.791Z,3.50
2022-10-24T17:58:03.505Z,2.95
2022-10-24T18:00:30.242Z,3.88
2022-10-24T18:02:56.760Z,4.15
2022-10-24T18:05:25.929Z,8.10
2022-10-24T18:07:53.461Z,4.25
2022-10-24T18:10:20.510Z,4.80
2022-10-24T18:12:47.315Z,5.43
2022-10-24T18:15:15.167Z,7.07
2022-10-24T18:17:42.062Z,8.65
2022-10-24T18:20:09.226Z,5.32
2022-10-24T18:22:38.074Z,4.07
2022-10-24T18:25:05.923Z,4.78
2022-10-24T18:27:33.110Z,8.23
2022-10-24T18:29:59.657Z,7.47
2022-10-24T18:32:26.148Z,5.15
2022-10-24T18:34:53.975Z,6.43
2022-10-24T18:37:20.520Z,32.83
2022-10-24T18:39:47.583Z,7.00
2022-10-24T18:42:17.055Z,6.38
2022-10-24T18:44:48.730Z,10.45
2022-10-24T18:47:20.737Z,10.60
2022-10-24T18:49:50.040Z,6.32
2022-10-24T18:52:18.156Z,6.30
2022-10-24T18:54:54.410Z,12.30
2022-10-24T18:57:23.356Z,8.57
2022-10-24T18:59:50.301Z,16.63
2022-10-24T19:02:35.625Z,12.93
2022-10-24T19:05:06.888Z,13.20
2022-10-24T19:07:33.527Z,15.55
2022-10-24T19:09:59.997Z,19.08
2022-10-24T19:12:28.120Z,11.40
2022-10-24T19:14:55.117Z,16.25
2022-10-24T19:17:21.875Z,16.35
2022-10-24T19:19:48.634Z,19.60
2022-10-24T19:22:15.074Z,15.45
2022-10-24T19:24:41.484Z,18.10
2022-10-24T19:27:07.951Z,20.45
2022-10-24T19:29:34.355Z,18.58
2022-10-24T19:32:00.794Z,17.38
2022-10-24T19:34:29.354Z,19.52
2022-10-24T19:36:55.830Z,18.77
2022-10-24T19:39:22.302Z,17.52
2022-10-24T19:41:48.752Z,12.02
2022-10-24T19:44:15.352Z,14.50
2022-10-24T19:46:41.754Z,12.88
2022-10-24T19:49:08.373Z,16.40
2022-10-24T19:51:34.797Z,15.23
2022-10-24T19:54:01.207Z,14.25
2022-10-24T19:56:29.066Z,15.80
2022-10-24T19:58:55.542Z,11.82
2022-10-24T20:01:23.858Z,11.30
2022-10-24T20:03:51.071Z,12.40
2022-10-24T20:06:18.130Z,11.20
2022-10-24T20:08:48.083Z,10.00
2022-10-24T20:11:20.129Z,6.90
2022-10-24T20:13:46.841Z,12.48
2022-10-24T20:16:13.614Z,9.50
2022-10-24T20:21:08.367Z,10.00
2022-10-24T20:23:35.657Z,11.10
2022-10-24T20:26:06.476Z,10.07
2022-10-24T20:28:40.680Z,13.63
2022-10-24T20:31:07.245Z,10.98
2022-10-24T20:33:34.068Z,10.27
2022-10-24T20:36:00.987Z,13.98
2022-10-24T20:38:28.202Z,12.35
2022-10-24T20:40:54.818Z,16.27
2022-10-24T20:43:21.286Z,14.35
2022-10-24T20:45:47.706Z,16.67
2022-10-24T20:48:14.179Z,13.55
2022-10-24T20:50:40.633Z,17.63
2022-10-24T20:53:07.085Z,6.80
2022-10-24T20:55:44.853Z,11.30
2022-10-24T20:58:12.438Z,8.13
2022-10-24T21:00:38.829Z,6.55
2022-10-24T21:03:05.367Z,5.75
2022-10-24T21:05:34.122Z,4.90
2022-10-24T21:08:01.722Z,6.18
2022-10-24T21:10:32.310Z,4.07
2022-10-24T21:12:58.933Z,5.30
2022-10-24T21:15:25.365Z,6.05
2022-10-24T21:17:51.777Z,5.75
2022-10-24T21:20:18.173Z,5.78
2022-10-24T21:22:44.563Z,4.00
2022-10-24T21:25:10.976Z,8.25
2022-10-24T21:27:37.385Z,4.35
2022-10-24T21:30:03.990Z,8.82
2022-10-24T21:32:30.388Z,8.68
2022-10-24T21:34:56.833Z,10.30
2022-10-24T21:37:23.213Z,8.60
2022-10-24T21:39:49.621Z,10.82
2022-10-24T21:42:16.053Z,8.32
2022-10-24T21:44:42.528Z,12.23
2022-10-24T21:47:08.941Z,9.70
2022-10-24T21:49:35.345Z,9.27
2022-10-24T21:52:01.732Z,7.85
2022-10-24T21:54:29.415Z,11.27
2022-10-24T21:56:55.793Z,11.05
2022-10-24T21:59:22.470Z,13.07
2022-10-24T22:01:49.800Z,9.82
2022-10-24T22:04:17.127Z,10.13
2022-10-24T22:06:44.115Z,7.82
2022-10-24T22:09:11.868Z,10.45
2022-10-24T22:11:38.339Z,13.85
2022-10-24T22:14:05.978Z,9.18
2022-10-24T22:16:32.606Z,7.80
2022-10-24T22:19:00.414Z,8.68
2022-10-24T22:21:31.356Z,9.43
2022-10-24T22:23:58.983Z,10.55
2022-10-24T22:26:26.009Z,11.15
2022-10-24T22:28:55.605Z,7.97
2022-10-24T22:31:22.376Z,9.02
2022-10-24T22:33:48.801Z,12.25
2022-10-24T22:36:18.217Z,13.05
2022-10-24T22:38:44.742Z,15.15
2022-10-24T22:41:11.737Z,16.08
2022-10-24T22:43:38.420Z,15.75
2022-10-24T22:46:15.186Z,15.88
2022-10-24T22:48:43.761Z,11.82
2022-10-24T22:51:10.303Z,15.50
2022-10-24T22:53:36.837Z,12.63
2022-10-24T22:56:03.342Z,13.25
2022-10-24T22:58:29.934Z,14.80
2022-10-24T23:01:00.487Z,12.93
2022-10-24T23:03:34.206Z,16.20
2022-10-24T23:06:04.734Z,12.63
2022-10-24T23:08:33.773Z,16.95
2022-10-24T23:11:00.338Z,17.05
2022-10-24T23:13:27.051Z,14.45
2022-10-24T23:15:54.425Z,12.20
2022-10-24T23:18:20.938Z,14.38
2022-10-24T23:20:51.718Z,15.88
2022-10-24T23:23:28.813Z,15.75
2022-10-24T23:25:59.271Z,15.90
2022-10-24T23:28:36.129Z,15.30
2022-10-24T23:33:30.188Z,13.63
2022-10-24T23:35:59.975Z,12.88
2022-10-24T23:38:26.699Z,12.73
2022-10-24T23:40:53.421Z,12.60
2022-10-24T23:43:21.242Z,13.32
2022-10-24T23:45:50.675Z,17.77
2022-10-24T23:48:35.969Z,16.95
2022-10-24T23:51:05.453Z,12.32
2022-10-24T23:53:38.839Z,18.80
2022-10-24T23:56:05.447Z,12.00
2022-10-24T23:58:31.838Z,15.90
